sensor_id;sensor_type;location;lat;lon;timestamp;P1;durP1;ratioP1;P2;durP2;ratioP2
9958;SDS011;5019;48.012;7.812;2022-09-24T00:01:54;7.27;;;4.10;;
9958;SDS011;5019;48.012;7.812;2022-09-24T00:04:23;3.93;;;3.50;;
9958;SDS011;5019;48.012;7.812;2022-09-24T00:06:49;4.03;;;3.27;;
9958;SDS011;5019;48.012;7.812;2022-09-24T00:09:16;3.63;;;3.10;;
9958;SDS011;5019;48.012;7.812;2022-09-24T00:11:43;3.40;;;3.10;;
9958;SDS011;5019;48.012;7.812;2022-09-24T00:14:09;5.87;;;4.17;;
9958;SDS011;5019;48.012;7.812;2022-09-24T00:16:36;7.00;;;3.43;;
9958;SDS011;5019;48.012;7.812;2022-09-24T00:19:04;3.97;;;3.23;;
9958;SDS011;5019;48.012;7.812;2022-09-24T00:21:31;4.50;;;3.50;;
9958;SDS011;5019;48.012;7.812;2022-09-24T00:24:00;4.60;;;3.30;;
9958;SDS011;5019;48.012;7.812;2022-09-24T00:26:26;5.27;;;3.93;;
9958;SDS011;5019;48.012;7.812;2022-09-24T00:29:12;5.17;;;3.60;;
9958;SDS011;5019;48.012;7.812;2022-09-24T00:31:39;7.17;;;3.77;;
9958;SDS011;5019;48.012;7.812;2022-09-24T00:34:05;4.67;;;3.90;;
9958;SDS011;5019;48.012;7.812;2022-09-24T00:36:31;7.07;;;3.93;;
9958;SDS011;5019;48.012;7.812;2022-09-24T00:38:57;5.53;;;4.17;;
9958;SDS011;5019;48.012;7.812;2022-09-24T00:41:24;6.70;;;3.50;;
9958;SDS011;5019;48.012;7.812;2022-09-24T00:43:51;4.83;;;3.60;;
9958;SDS011;5019;48.012;7.812;2022-09-24T00:49:05;4.33;;;3.93;;
9958;SDS011;5019;48.012;7.812;2022-09-24T00:51:35;6.67;;;4.80;;
9958;SDS011;5019;48.012;7.812;2022-09-24T00:54:05;4.60;;;3.77;;
9958;SDS011;5019;48.012;7.812;2022-09-24T00:56:33;5.27;;;4.47;;
9958;SDS011;5019;48.012;7.812;2022-09-24T00:59:00;5.00;;;3.77;;
9958;SDS011;5019;48.012;7.812;2022-09-24T01:01:27;4.70;;;4.30;;
9958;SDS011;5019;48.012;7.812;2022-09-24T01:03:54;4.33;;;3.90;;
9958;SDS011;5019;48.012;7.812;2022-09-24T01:06:21;5.83;;;4.70;;
9958;SDS011;5019;48.012;7.812;2022-09-24T01:08:47;4.27;;;3.87;;
9958;SDS011;5019;48.012;7.812;2022-09-24T01:11:18;6.70;;;3.87;;
9958;SDS011;5019;48.012;7.812;2022-09-24T01:16:24;5.47;;;4.50;;
9958;SDS011;5019;48.012;7.812;2022-09-24T01:18:55;9.50;;;4.10;;
9958;SDS011;5019;48.012;7.812;2022-09-24T01:26:36;4.73;;;4.10;;
9958;SDS011;5019;48.012;7.812;2022-09-24T01:31:44;7.00;;;4.10;;
9958;SDS011;5019;48.012;7.812;2022-09-24T01:34:12;6.90;;;4.23;;
9958;SDS011;5019;48.012;7.812;2022-09-24T01:36:40;4.80;;;3.90;;
9958;SDS011;5019;48.012;7.812;2022-09-24T01:39:07;4.87;;;4.47;;
9958;SDS011;5019;48.012;7.812;2022-09-24T01:41:34;4.13;;;3.83;;
9958;SDS011;5019;48.012;7.812;2022-09-24T01:44:01;5.33;;;3.80;;
9958;SDS011;5019;48.012;7.812;2022-09-24T01:46:29;6.77;;;4.00;;
9958;SDS011;5019;48.012;7.812;2022-09-24T01:48:56;5.20;;;4.40;;
9958;SDS011;5019;48.012;7.812;2022-09-24T01:51:27;6.60;;;4.27;;
9958;SDS011;5019;48.012;7.812;2022-09-24T01:56:26;5.47;;;3.67;;
9958;SDS011;5019;48.012;7.812;2022-09-24T02:02:23;6.20;;;5.10;;
9958;SDS011;5019;48.012;7.812;2022-09-24T02:04:24;8.70;;;4.93;;
9958;SDS011;5019;48.012;7.812;2022-09-24T02:06:55;6.63;;;4.07;;
9958;SDS011;5019;48.012;7.812;2022-09-24T02:09:33;7.00;;;4.50;;
9958;SDS011;5019;48.012;7.812;2022-09-24T02:12:08;5.60;;;4.00;;
9958;SDS011;5019;48.012;7.812;2022-09-24T02:14:36;8.30;;;4.50;;
9958;SDS011;5019;48.012;7.812;2022-09-24T02:17:04;5.20;;;3.57;;
9958;SDS011;5019;48.012;7.812;2022-09-24T02:19:32;5.30;;;4.00;;
9958;SDS011;5019;48.012;7.812;2022-09-24T02:22:01;7.03;;;3.80;;
9958;SDS011;5019;48.012;7.812;2022-09-24T02:24:30;6.10;;;3.70;;
9958;SDS011;5019;48.012;7.812;2022-09-24T02:26:58;5.90;;;4.23;;
9958;SDS011;5019;48.012;7.812;2022-09-24T02:29:24;3.90;;;3.30;;
9958;SDS011;5019;48.012;7.812;2022-09-24T02:31:51;5.00;;;3.57;;
9958;SDS011;5019;48.012;7.812;2022-09-24T02:34:19;3.93;;;3.37;;
9958;SDS011;5019;48.012;7.812;2022-09-24T02:36:51;6.10;;;2.90;;
9958;SDS011;5019;48.012;7.812;2022-09-24T02:39:18;3.70;;;3.33;;
9958;SDS011;5019;48.012;7.812;2022-09-24T02:41:44;4.83;;;3.17;;
9958;SDS011;5019;48.012;7.812;2022-09-24T02:44:12;4.93;;;3.77;;
9958;SDS011;5019;48.012;7.812;2022-09-24T02:46:38;3.97;;;3.50;;
9958;SDS011;5019;48.012;7.812;2022-09-24T02:49:05;3.60;;;3.30;;
9958;SDS011;5019;48.012;7.812;2022-09-24T02:51:32;3.07;;;2.83;;
9958;SDS011;5019;48.012;7.812;2022-09-24T02:53:58;3.53;;;3.00;;
9958;SDS011;5019;48.012;7.812;2022-09-24T02:56:25;5.87;;;3.67;;
9958;SDS011;5019;48.012;7.812;2022-09-24T02:58:52;4.27;;;3.53;;
9958;SDS011;5019;48.012;7.812;2022-09-24T03:01:18;3.93;;;2.83;;
9958;SDS011;5019;48.012;7.812;2022-09-24T03:03:44;3.00;;;2.80;;
9958;SDS011;5019;48.012;7.812;2022-09-24T03:06:11;2.97;;;2.67;;
9958;SDS011;5019;48.012;7.812;2022-09-24T03:08:37;2.33;;;2.13;;
9958;SDS011;5019;48.012;7.812;2022-09-24T03:11:03;4.07;;;2.63;;
9958;SDS011;5019;48.012;7.812;2022-09-24T03:13:29;2.50;;;2.07;;
9958;SDS011;5019;48.012;7.812;2022-09-24T03:15:56;2.87;;;2.60;;
9958;SDS011;5019;48.012;7.812;2022-09-24T03:18:22;2.13;;;2.03;;
9958;SDS011;5019;48.012;7.812;2022-09-24T03:20:55;2.40;;;2.20;;
9958;SDS011;5019;48.012;7.812;2022-09-24T03:23:21;2.67;;;2.47;;
9958;SDS011;5019;48.012;7.812;2022-09-24T03:25:47;2.67;;;2.10;;
9958;SDS011;5019;48.012;7.812;2022-09-24T03:28:13;2.80;;;2.13;;
9958;SDS011;5019;48.012;7.812;2022-09-24T03:30:39;1.23;;;1.23;;
9958;SDS011;5019;48.012;7.812;2022-09-24T03:33:34;4.50;;;2.20;;
9958;SDS011;5019;48.012;7.812;2022-09-24T03:36:05;2.10;;;1.87;;
9958;SDS011;5019;48.012;7.812;2022-09-24T03:38:32;2.43;;;2.10;;
9958;SDS011;5019;48.012;7.812;2022-09-24T03:40:58;1.60;;;1.50;;
9958;SDS011;5019;48.012;7.812;2022-09-24T03:43:24;2.57;;;2.00;;
9958;SDS011;5019;48.012;7.812;2022-09-24T03:45:51;2.90;;;1.60;;
9958;SDS011;5019;48.012;7.812;2022-09-24T03:48:18;1.60;;;1.40;;
9958;SDS011;5019;48.012;7.812;2022-09-24T03:50:44;2.10;;;2.00;;
9958;SDS011;5019;48.012;7.812;2022-09-24T03:53:10;1.30;;;1.20;;
9958;SDS011;5019;48.012;7.812;2022-09-24T03:55:43;2.37;;;1.50;;
9958;SDS011;5019;48.012;7.812;2022-09-24T03:58:10;1.60;;;1.40;;
9958;SDS011;5019;48.012;7.812;2022-09-24T04:00:36;1.83;;;1.73;;
9958;SDS011;5019;48.012;7.812;2022-09-24T04:03:02;2.07;;;1.87;;
9958;SDS011;5019;48.012;7.812;2022-09-24T04:05:28;2.70;;;2.00;;
9958;SDS011;5019;48.012;7.812;2022-09-24T04:07:55;2.10;;;1.70;;
9958;SDS011;5019;48.012;7.812;2022-09-24T04:10:21;2.80;;;1.93;;
9958;SDS011;5019;48.012;7.812;2022-09-24T04:12:50;1.70;;;1.60;;
9958;SDS011;5019;48.012;7.812;2022-09-24T04:15:16;2.30;;;1.83;;
9958;SDS011;5019;48.012;7.812;2022-09-24T04:17:48;1.47;;;1.30;;
9958;SDS011;5019;48.012;7.812;2022-09-24T04:20:14;1.53;;;1.43;;
9958;SDS011;5019;48.012;7.812;2022-09-24T04:22:40;1.50;;;1.40;;
9958;SDS011;5019;48.012;7.812;2022-09-24T04:25:06;2.13;;;1.63;;
9958;SDS011;5019;48.012;7.812;2022-09-24T04:27:32;1.60;;;1.50;;
9958;SDS011;5019;48.012;7.812;2022-09-24T04:30:00;1.70;;;1.60;;
9958;SDS011;5019;48.012;7.812;2022-09-24T04:32:26;1.67;;;1.57;;
9958;SDS011;5019;48.012;7.812;2022-09-24T04:34:52;0.97;;;0.97;;
9958;SDS011;5019;48.012;7.812;2022-09-24T04:37:18;1.20;;;1.10;;
9958;SDS011;5019;48.012;7.812;2022-09-24T04:39:44;1.57;;;1.47;;
9958;SDS011;5019;48.012;7.812;2022-09-24T04:42:14;1.50;;;1.40;;
9958;SDS011;5019;48.012;7.812;2022-09-24T04:44:41;1.40;;;1.30;;
9958;SDS011;5019;48.012;7.812;2022-09-24T04:47:11;1.63;;;1.40;;
9958;SDS011;5019;48.012;7.812;2022-09-24T04:49:38;2.70;;;1.93;;
9958;SDS011;5019;48.012;7.812;2022-09-24T04:52:04;3.73;;;1.93;;
9958;SDS011;5019;48.012;7.812;2022-09-24T04:54:30;1.40;;;1.30;;
9958;SDS011;5019;48.012;7.812;2022-09-24T04:56:56;1.40;;;1.20;;
9958;SDS011;5019;48.012;7.812;2022-09-24T04:59:22;1.43;;;1.03;;
9958;SDS011;5019;48.012;7.812;2022-09-24T05:01:48;1.43;;;1.13;;
9958;SDS011;5019;48.012;7.812;2022-09-24T05:04:14;1.40;;;1.30;;
9958;SDS011;5019;48.012;7.812;2022-09-24T05:06:41;1.80;;;1.30;;
9958;SDS011;5019;48.012;7.812;2022-09-24T05:09:07;1.70;;;1.47;;
9958;SDS011;5019;48.012;7.812;2022-09-24T05:11:33;1.30;;;1.10;;
9958;SDS011;5019;48.012;7.812;2022-09-24T05:13:59;1.33;;;1.23;;
9958;SDS011;5019;48.012;7.812;2022-09-24T05:16:25;1.60;;;1.20;;
9958;SDS011;5019;48.012;7.812;2022-09-24T05:18:51;1.63;;;1.20;;
9958;SDS011;5019;48.012;7.812;2022-09-24T05:21:17;2.20;;;1.57;;
9958;SDS011;5019;48.012;7.812;2022-09-24T05:23:43;4.20;;;1.43;;
9958;SDS011;5019;48.012;7.812;2022-09-24T05:26:09;2.47;;;1.43;;
9958;SDS011;5019;48.012;7.812;2022-09-24T05:28:53;4.07;;;1.87;;
9958;SDS011;5019;48.012;7.812;2022-09-24T05:31:19;1.63;;;1.40;;
9958;SDS011;5019;48.012;7.812;2022-09-24T05:33:45;1.03;;;0.93;;
9958;SDS011;5019;48.012;7.812;2022-09-24T05:36:11;3.43;;;1.53;;
9958;SDS011;5019;48.012;7.812;2022-09-24T05:38:37;2.60;;;1.90;;
9958;SDS011;5019;48.012;7.812;2022-09-24T05:41:03;1.77;;;1.67;;
9958;SDS011;5019;48.012;7.812;2022-09-24T05:43:29;1.50;;;1.40;;
9958;SDS011;5019;48.012;7.812;2022-09-24T05:45:56;4.80;;;1.60;;
9958;SDS011;5019;48.012;7.812;2022-09-24T05:48:23;1.70;;;1.50;;
9958;SDS011;5019;48.012;7.812;2022-09-24T05:50:50;1.40;;;1.30;;
9958;SDS011;5019;48.012;7.812;2022-09-24T05:53:19;1.73;;;1.40;;
9958;SDS011;5019;48.012;7.812;2022-09-24T05:55:45;1.90;;;1.80;;
9958;SDS011;5019;48.012;7.812;2022-09-24T05:58:11;2.70;;;1.70;;
9958;SDS011;5019;48.012;7.812;2022-09-24T06:00:38;2.33;;;1.90;;
9958;SDS011;5019;48.012;7.812;2022-09-24T06:03:04;2.60;;;1.80;;
9958;SDS011;5019;48.012;7.812;2022-09-24T06:05:31;2.33;;;2.10;;
9958;SDS011;5019;48.012;7.812;2022-09-24T06:07:59;1.53;;;1.30;;
9958;SDS011;5019;48.012;7.812;2022-09-24T06:10:25;3.47;;;2.10;;
9958;SDS011;5019;48.012;7.812;2022-09-24T06:12:51;1.73;;;1.63;;
9958;SDS011;5019;48.012;7.812;2022-09-24T06:15:18;2.07;;;1.60;;
9958;SDS011;5019;48.012;7.812;2022-09-24T06:17:44;2.07;;;1.30;;
9958;SDS011;5019;48.012;7.812;2022-09-24T06:20:10;1.43;;;1.33;;
9958;SDS011;5019;48.012;7.812;2022-09-24T06:22:37;2.37;;;1.50;;
9958;SDS011;5019;48.012;7.812;2022-09-24T06:25:04;1.83;;;1.57;;
9958;SDS011;5019;48.012;7.812;2022-09-24T06:27:30;1.67;;;1.57;;
9958;SDS011;5019;48.012;7.812;2022-09-24T06:29:56;3.20;;;1.40;;
9958;SDS011;5019;48.012;7.812;2022-09-24T06:32:22;2.17;;;1.70;;
9958;SDS011;5019;48.012;7.812;2022-09-24T06:34:48;3.63;;;1.97;;
9958;SDS011;5019;48.012;7.812;2022-09-24T06:37:14;1.60;;;1.50;;
9958;SDS011;5019;48.012;7.812;2022-09-24T06:39:40;2.00;;;1.90;;
9958;SDS011;5019;48.012;7.812;2022-09-24T06:42:07;1.50;;;1.30;;
9958;SDS011;5019;48.012;7.812;2022-09-24T06:44:33;1.40;;;1.30;;
9958;SDS011;5019;48.012;7.812;2022-09-24T06:46:59;2.27;;;1.67;;
9958;SDS011;5019;48.012;7.812;2022-09-24T06:49:25;1.80;;;1.40;;
9958;SDS011;5019;48.012;7.812;2022-09-24T06:51:53;1.87;;;1.73;;
9958;SDS011;5019;48.012;7.812;2022-09-24T06:54:19;1.73;;;1.63;;
9958;SDS011;5019;48.012;7.812;2022-09-24T06:56:45;1.50;;;1.40;;
9958;SDS011;5019;48.012;7.812;2022-09-24T06:59:11;1.73;;;1.63;;
9958;SDS011;5019;48.012;7.812;2022-09-24T07:01:37;1.23;;;1.13;;
9958;SDS011;5019;48.012;7.812;2022-09-24T07:04:03;1.77;;;1.57;;
9958;SDS011;5019;48.012;7.812;2022-09-24T07:06:29;1.53;;;1.20;;
9958;SDS011;5019;48.012;7.812;2022-09-24T07:09:15;1.63;;;1.50;;
9958;SDS011;5019;48.012;7.812;2022-09-24T07:11:41;2.30;;;1.43;;
9958;SDS011;5019;48.012;7.812;2022-09-24T07:14:10;1.97;;;1.87;;
9958;SDS011;5019;48.012;7.812;2022-09-24T07:16:36;1.27;;;1.17;;
9958;SDS011;5019;48.012;7.812;2022-09-24T07:19:02;1.70;;;1.50;;
9958;SDS011;5019;48.012;7.812;2022-09-24T07:21:27;2.83;;;1.70;;
9958;SDS011;5019;48.012;7.812;2022-09-24T07:23:53;1.87;;;1.53;;
9958;SDS011;5019;48.012;7.812;2022-09-24T07:26:19;2.53;;;2.00;;
9958;SDS011;5019;48.012;7.812;2022-09-24T07:28:45;2.10;;;2.00;;
9958;SDS011;5019;48.012;7.812;2022-09-24T07:31:11;1.40;;;1.30;;
9958;SDS011;5019;48.012;7.812;2022-09-24T07:33:37;1.93;;;1.30;;
9958;SDS011;5019;48.012;7.812;2022-09-24T07:36:04;1.73;;;1.63;;
9958;SDS011;5019;48.012;7.812;2022-09-24T07:38:31;1.73;;;1.30;;
9958;SDS011;5019;48.012;7.812;2022-09-24T07:41:00;1.97;;;1.37;;
9958;SDS011;5019;48.012;7.812;2022-09-24T07:43:27;2.93;;;2.17;;
9958;SDS011;5019;48.012;7.812;2022-09-24T07:45:55;2.07;;;1.60;;
9958;SDS011;5019;48.012;7.812;2022-09-24T07:48:22;1.60;;;1.50;;
9958;SDS011;5019;48.012;7.812;2022-09-24T07:50:48;2.03;;;1.80;;
9958;SDS011;5019;48.012;7.812;2022-09-24T07:53:15;1.30;;;1.20;;
9958;SDS011;5019;48.012;7.812;2022-09-24T07:55:41;1.37;;;1.27;;
9958;SDS011;5019;48.012;7.812;2022-09-24T07:58:07;2.27;;;1.80;;
9958;SDS011;5019;48.012;7.812;2022-09-24T08:00:35;2.10;;;1.63;;
9958;SDS011;5019;48.012;7.812;2022-09-24T08:03:02;1.63;;;1.47;;
9958;SDS011;5019;48.012;7.812;2022-09-24T08:05:29;3.27;;;1.93;;
9958;SDS011;5019;48.012;7.812;2022-09-24T08:07:56;2.27;;;1.50;;
9958;SDS011;5019;48.012;7.812;2022-09-24T08:10:23;1.93;;;1.60;;
9958;SDS011;5019;48.012;7.812;2022-09-24T08:12:50;1.73;;;1.60;;
9958;SDS011;5019;48.012;7.812;2022-09-24T08:15:16;2.30;;;1.80;;
9958;SDS011;5019;48.012;7.812;2022-09-24T08:17:42;1.60;;;1.50;;
9958;SDS011;5019;48.012;7.812;2022-09-24T08:20:09;1.57;;;1.30;;
9958;SDS011;5019;48.012;7.812;2022-09-24T08:22:36;1.90;;;1.80;;
9958;SDS011;5019;48.012;7.812;2022-09-24T08:25:02;1.43;;;1.33;;
9958;SDS011;5019;48.012;7.812;2022-09-24T08:27:28;1.43;;;1.33;;
9958;SDS011;5019;48.012;7.812;2022-09-24T08:29:56;1.50;;;1.40;;
9958;SDS011;5019;48.012;7.812;2022-09-24T08:32:24;1.30;;;1.20;;
9958;SDS011;5019;48.012;7.812;2022-09-24T08:34:50;1.20;;;1.13;;
9958;SDS011;5019;48.012;7.812;2022-09-24T08:37:16;2.13;;;1.73;;
9958;SDS011;5019;48.012;7.812;2022-09-24T08:39:42;1.77;;;1.20;;
9958;SDS011;5019;48.012;7.812;2022-09-24T08:42:29;1.80;;;1.60;;
9958;SDS011;5019;48.012;7.812;2022-09-24T08:44:59;1.67;;;1.37;;
9958;SDS011;5019;48.012;7.812;2022-09-24T08:47:47;1.77;;;1.57;;
9958;SDS011;5019;48.012;7.812;2022-09-24T08:50:16;1.40;;;1.30;;
9958;SDS011;5019;48.012;7.812;2022-09-24T08:57:59;1.87;;;1.77;;
9958;SDS011;5019;48.012;7.812;2022-09-24T09:00:28;1.40;;;1.30;;
9958;SDS011;5019;48.012;7.812;2022-09-24T09:10:25;1.70;;;1.43;;
9958;SDS011;5019;48.012;7.812;2022-09-24T09:12:57;3.67;;;1.37;;
9958;SDS011;5019;48.012;7.812;2022-09-24T09:15:30;1.17;;;1.07;;
9958;SDS011;5019;48.012;7.812;2022-09-24T09:22:53;2.80;;;1.60;;
9958;SDS011;5019;48.012;7.812;2022-09-24T09:25:20;2.30;;;1.63;;
9958;SDS011;5019;48.012;7.812;2022-09-24T09:27:58;1.90;;;1.30;;
9958;SDS011;5019;48.012;7.812;2022-09-24T09:30:25;1.43;;;1.40;;
9958;SDS011;5019;48.012;7.812;2022-09-24T09:35:22;1.20;;;1.10;;
9958;SDS011;5019;48.012;7.812;2022-09-24T09:38:53;1.97;;;1.87;;
9958;SDS011;5019;48.012;7.812;2022-09-24T09:40:47;1.53;;;1.43;;
9958;SDS011;5019;48.012;7.812;2022-09-24T09:43:16;1.37;;;1.10;;
9958;SDS011;5019;48.012;7.812;2022-09-24T09:45:53;1.47;;;1.37;;
9958;SDS011;5019;48.012;7.812;2022-09-24T09:48:21;2.20;;;1.10;;
9958;SDS011;5019;48.012;7.812;2022-09-24T09:50:59;1.87;;;1.27;;
9958;SDS011;5019;48.012;7.812;2022-09-24T09:53:28;1.33;;;1.20;;
9958;SDS011;5019;48.012;7.812;2022-09-24T09:55:57;1.67;;;1.57;;
9958;SDS011;5019;48.012;7.812;2022-09-24T10:00:50;1.03;;;1.03;;
9958;SDS011;5019;48.012;7.812;2022-09-24T10:03:23;1.47;;;1.10;;
9958;SDS011;5019;48.012;7.812;2022-09-24T10:05:51;2.20;;;1.20;;
9958;SDS011;5019;48.012;7.812;2022-09-24T10:08:20;1.63;;;1.13;;
9958;SDS011;5019;48.012;7.812;2022-09-24T10:10:53;1.53;;;1.33;;
9958;SDS011;5019;48.012;7.812;2022-09-24T10:13:19;1.33;;;1.10;;
9958;SDS011;5019;48.012;7.812;2022-09-24T10:15:50;1.30;;;1.20;;
9958;SDS011;5019;48.012;7.812;2022-09-24T10:18:16;1.40;;;1.23;;
9958;SDS011;5019;48.012;7.812;2022-09-24T10:20:45;1.53;;;1.37;;
9958;SDS011;5019;48.012;7.812;2022-09-24T10:23:22;1.50;;;1.40;;
9958;SDS011;5019;48.012;7.812;2022-09-24T10:25:49;1.53;;;1.43;;
9958;SDS011;5019;48.012;7.812;2022-09-24T10:28:17;1.50;;;1.40;;
9958;SDS011;5019;48.012;7.812;2022-09-24T10:31:09;1.87;;;1.10;;
9958;SDS011;5019;48.012;7.812;2022-09-24T10:33:36;1.73;;;1.30;;
9958;SDS011;5019;48.012;7.812;2022-09-24T10:36:04;1.37;;;1.27;;
9958;SDS011;5019;48.012;7.812;2022-09-24T10:38:31;1.10;;;1.00;;
9958;SDS011;5019;48.012;7.812;2022-09-24T10:40:57;2.10;;;1.27;;
9958;SDS011;5019;48.012;7.812;2022-09-24T10:43:24;1.67;;;1.17;;
9958;SDS011;5019;48.012;7.812;2022-09-24T10:45:54;3.37;;;1.80;;
9958;SDS011;5019;48.012;7.812;2022-09-24T10:48:37;1.20;;;1.10;;
9958;SDS011;5019;48.012;7.812;2022-09-24T10:53:53;1.27;;;1.03;;
9958;SDS011;5019;48.012;7.812;2022-09-24T10:56:35;1.57;;;1.37;;
9958;SDS011;5019;48.012;7.812;2022-09-24T11:01:47;1.33;;;1.10;;
9958;SDS011;5019;48.012;7.812;2022-09-24T11:04:21;2.10;;;1.90;;
9958;SDS011;5019;48.012;7.812;2022-09-24T11:12:09;1.13;;;0.90;;
9958;SDS011;5019;48.012;7.812;2022-09-24T11:19:49;2.17;;;1.53;;
9958;SDS011;5019;48.012;7.812;2022-09-24T11:37:51;1.77;;;1.47;;
9958;SDS011;5019;48.012;7.812;2022-09-24T11:42:57;1.53;;;1.10;;
9958;SDS011;5019;48.012;7.812;2022-09-24T11:53:30;1.07;;;1.00;;
9958;SDS011;5019;48.012;7.812;2022-09-24T12:01:09;1.70;;;1.60;;
9958;SDS011;5019;48.012;7.812;2022-09-24T12:03:40;1.73;;;1.50;;
9958;SDS011;5019;48.012;7.812;2022-09-24T12:06:26;1.73;;;1.40;;
9958;SDS011;5019;48.012;7.812;2022-09-24T12:08:57;2.43;;;1.33;;
9958;SDS011;5019;48.012;7.812;2022-09-24T12:11:28;1.50;;;1.40;;
9958;SDS011;5019;48.012;7.812;2022-09-24T12:14:15;1.70;;;1.20;;
9958;SDS011;5019;48.012;7.812;2022-09-24T12:16:44;1.77;;;1.30;;
9958;SDS011;5019;48.012;7.812;2022-09-24T12:19:19;1.37;;;1.30;;
9958;SDS011;5019;48.012;7.812;2022-09-24T12:21:47;1.30;;;1.20;;
9958;SDS011;5019;48.012;7.812;2022-09-24T12:24:35;1.37;;;1.27;;
9958;SDS011;5019;48.012;7.812;2022-09-24T12:27:01;2.80;;;1.40;;
9958;SDS011;5019;48.012;7.812;2022-09-24T12:32:30;1.83;;;1.73;;
9958;SDS011;5019;48.012;7.812;2022-09-24T12:37:48;1.20;;;1.10;;
9958;SDS011;5019;48.012;7.812;2022-09-24T12:43:00;1.30;;;1.20;;
9958;SDS011;5019;48.012;7.812;2022-09-24T12:45:27;1.57;;;1.47;;
9958;SDS011;5019;48.012;7.812;2022-09-24T12:47:56;1.67;;;1.07;;
9958;SDS011;5019;48.012;7.812;2022-09-24T12:50:25;1.40;;;1.20;;
9958;SDS011;5019;48.012;7.812;2022-09-24T12:52:51;1.20;;;1.10;;
9958;SDS011;5019;48.012;7.812;2022-09-24T12:55:22;1.90;;;1.50;;
9958;SDS011;5019;48.012;7.812;2022-09-24T13:02:57;1.17;;;1.07;;
9958;SDS011;5019;48.012;7.812;2022-09-24T13:12:47;1.40;;;1.20;;
9958;SDS011;5019;48.012;7.812;2022-09-24T13:18:00;1.07;;;0.97;;
9958;SDS011;5019;48.012;7.812;2022-09-24T13:20:28;1.30;;;1.20;;
9958;SDS011;5019;48.012;7.812;2022-09-24T13:22:59;2.70;;;1.50;;
9958;SDS011;5019;48.012;7.812;2022-09-24T13:25:36;1.83;;;1.30;;
9958;SDS011;5019;48.012;7.812;2022-09-24T13:28:16;2.00;;;1.10;;
9958;SDS011;5019;48.012;7.812;2022-09-24T13:30:43;1.60;;;1.50;;
9958;SDS011;5019;48.012;7.812;2022-09-24T13:35:45;1.93;;;1.40;;
9958;SDS011;5019;48.012;7.812;2022-09-24T13:38:23;3.77;;;1.67;;
9958;SDS011;5019;48.012;7.812;2022-09-24T13:40:52;1.33;;;1.00;;
9958;SDS011;5019;48.012;7.812;2022-09-24T13:43:30;1.73;;;1.27;;
9958;SDS011;5019;48.012;7.812;2022-09-24T13:45:57;1.90;;;1.70;;
9958;SDS011;5019;48.012;7.812;2022-09-24T13:48:29;1.70;;;1.30;;
9958;SDS011;5019;48.012;7.812;2022-09-24T13:50:58;1.23;;;1.13;;
9958;SDS011;5019;48.012;7.812;2022-09-24T13:53:31;2.37;;;1.50;;
9958;SDS011;5019;48.012;7.812;2022-09-24T13:56:01;2.00;;;1.20;;
9958;SDS011;5019;48.012;7.812;2022-09-24T14:00:54;1.53;;;1.20;;
9958;SDS011;5019;48.012;7.812;2022-09-24T14:05:47;1.67;;;1.57;;
9958;SDS011;5019;48.012;7.812;2022-09-24T14:08:15;2.40;;;1.60;;
9958;SDS011;5019;48.012;7.812;2022-09-24T14:10:42;1.83;;;1.07;;
9958;SDS011;5019;48.012;7.812;2022-09-24T14:13:15;1.20;;;1.10;;
9958;SDS011;5019;48.012;7.812;2022-09-24T14:15:51;2.10;;;1.90;;
9958;SDS011;5019;48.012;7.812;2022-09-24T14:18:17;2.30;;;1.50;;
9958;SDS011;5019;48.012;7.812;2022-09-24T14:20:43;1.70;;;1.40;;
9958;SDS011;5019;48.012;7.812;2022-09-24T14:23:14;2.10;;;1.40;;
9958;SDS011;5019;48.012;7.812;2022-09-24T14:25:42;2.17;;;1.70;;
9958;SDS011;5019;48.012;7.812;2022-09-24T14:28:09;1.90;;;1.10;;
9958;SDS011;5019;48.012;7.812;2022-09-24T14:30:35;1.63;;;1.20;;
9958;SDS011;5019;48.012;7.812;2022-09-24T14:33:05;1.63;;;1.53;;
9958;SDS011;5019;48.012;7.812;2022-09-24T14:35:32;1.73;;;1.47;;
9958;SDS011;5019;48.012;7.812;2022-09-24T14:38:00;2.37;;;1.63;;
9958;SDS011;5019;48.012;7.812;2022-09-24T14:40:28;2.73;;;1.50;;
9958;SDS011;5019;48.012;7.812;2022-09-24T14:42:55;1.47;;;1.20;;
9958;SDS011;5019;48.012;7.812;2022-09-24T14:45:35;5.23;;;1.33;;
9958;SDS011;5019;48.012;7.812;2022-09-24T14:48:03;3.60;;;1.57;;
9958;SDS011;5019;48.012;7.812;2022-09-24T14:52:59;2.00;;;1.50;;
9958;SDS011;5019;48.012;7.812;2022-09-24T14:55:35;1.87;;;1.13;;
9958;SDS011;5019;48.012;7.812;2022-09-24T14:58:01;2.70;;;1.30;;
9958;SDS011;5019;48.012;7.812;2022-09-24T15:00:29;1.50;;;1.40;;
9958;SDS011;5019;48.012;7.812;2022-09-24T15:03:01;1.40;;;1.30;;
9958;SDS011;5019;48.012;7.812;2022-09-24T15:05:27;1.50;;;1.40;;
9958;SDS011;5019;48.012;7.812;2022-09-24T15:08:14;2.17;;;1.60;;
9958;SDS011;5019;48.012;7.812;2022-09-24T15:10:50;2.10;;;1.30;;
9958;SDS011;5019;48.012;7.812;2022-09-24T15:13:18;1.30;;;1.13;;
9958;SDS011;5019;48.012;7.812;2022-09-24T15:15:46;2.60;;;2.40;;
9958;SDS011;5019;48.012;7.812;2022-09-24T15:18:12;1.73;;;1.23;;
9958;SDS011;5019;48.012;7.812;2022-09-24T15:20:41;1.50;;;1.40;;
9958;SDS011;5019;48.012;7.812;2022-09-24T15:23:08;1.30;;;1.00;;
9958;SDS011;5019;48.012;7.812;2022-09-24T15:25:34;1.10;;;1.00;;
9958;SDS011;5019;48.012;7.812;2022-09-24T15:28:00;1.63;;;1.40;;
9958;SDS011;5019;48.012;7.812;2022-09-24T15:30:26;0.93;;;0.83;;
9958;SDS011;5019;48.012;7.812;2022-09-24T15:32:52;1.20;;;1.10;;
9958;SDS011;5019;48.012;7.812;2022-09-24T15:35:18;1.90;;;1.40;;
9958;SDS011;5019;48.012;7.812;2022-09-24T15:37:45;1.37;;;1.27;;
9958;SDS011;5019;48.012;7.812;2022-09-24T15:40:20;1.13;;;1.03;;
9958;SDS011;5019;48.012;7.812;2022-09-24T15:42:47;1.50;;;1.00;;
9958;SDS011;5019;48.012;7.812;2022-09-24T15:45:17;1.57;;;1.37;;
9958;SDS011;5019;48.012;7.812;2022-09-24T15:47:43;1.93;;;1.10;;
9958;SDS011;5019;48.012;7.812;2022-09-24T15:50:10;1.17;;;1.00;;
9958;SDS011;5019;48.012;7.812;2022-09-24T15:52:39;1.40;;;1.30;;
9958;SDS011;5019;48.012;7.812;2022-09-24T15:55:11;1.70;;;1.20;;
9958;SDS011;5019;48.012;7.812;2022-09-24T15:57:38;1.23;;;1.10;;
9958;SDS011;5019;48.012;7.812;2022-09-24T16:00:05;2.20;;;2.10;;
9958;SDS011;5019;48.012;7.812;2022-09-24T16:02:31;2.37;;;1.20;;
9958;SDS011;5019;48.012;7.812;2022-09-24T16:04:58;2.20;;;0.93;;
9958;SDS011;5019;48.012;7.812;2022-09-24T16:07:24;1.87;;;1.70;;
9958;SDS011;5019;48.012;7.812;2022-09-24T16:09:51;1.47;;;1.10;;
9958;SDS011;5019;48.012;7.812;2022-09-24T16:12:17;2.27;;;1.10;;
9958;SDS011;5019;48.012;7.812;2022-09-24T16:14:44;1.37;;;1.13;;
9958;SDS011;5019;48.012;7.812;2022-09-24T16:17:10;1.53;;;1.23;;
9958;SDS011;5019;48.012;7.812;2022-09-24T16:19:36;2.57;;;1.57;;
9958;SDS011;5019;48.012;7.812;2022-09-24T16:22:03;2.93;;;1.40;;
9958;SDS011;5019;48.012;7.812;2022-09-24T16:24:32;1.10;;;1.00;;
9958;SDS011;5019;48.012;7.812;2022-09-24T16:26:59;2.10;;;1.47;;
9958;SDS011;5019;48.012;7.812;2022-09-24T16:29:25;1.40;;;1.13;;
9958;SDS011;5019;48.012;7.812;2022-09-24T16:31:51;1.53;;;1.30;;
9958;SDS011;5019;48.012;7.812;2022-09-24T16:34:17;2.20;;;1.53;;
9958;SDS011;5019;48.012;7.812;2022-09-24T16:36:43;1.10;;;1.00;;
9958;SDS011;5019;48.012;7.812;2022-09-24T16:39:09;1.53;;;1.43;;
9958;SDS011;5019;48.012;7.812;2022-09-24T16:41:35;1.33;;;1.23;;
9958;SDS011;5019;48.012;7.812;2022-09-24T16:44:02;1.80;;;1.30;;
9958;SDS011;5019;48.012;7.812;2022-09-24T16:46:29;1.37;;;0.90;;
9958;SDS011;5019;48.012;7.812;2022-09-24T16:48:55;1.20;;;1.10;;
9958;SDS011;5019;48.012;7.812;2022-09-24T16:51:21;1.80;;;1.10;;
9958;SDS011;5019;48.012;7.812;2022-09-24T16:53:52;1.63;;;1.43;;
9958;SDS011;5019;48.012;7.812;2022-09-24T16:56:18;1.27;;;1.17;;
9958;SDS011;5019;48.012;7.812;2022-09-24T16:58:44;2.10;;;1.53;;
9958;SDS011;5019;48.012;7.812;2022-09-24T17:01:12;2.10;;;1.50;;
9958;SDS011;5019;48.012;7.812;2022-09-24T17:03:38;1.87;;;1.70;;
9958;SDS011;5019;48.012;7.812;2022-09-24T17:06:04;1.50;;;1.40;;
9958;SDS011;5019;48.012;7.812;2022-09-24T17:08:31;3.53;;;1.50;;
9958;SDS011;5019;48.012;7.812;2022-09-24T17:11:16;2.23;;;1.40;;
9958;SDS011;5019;48.012;7.812;2022-09-24T17:13:42;1.37;;;1.27;;
9958;SDS011;5019;48.012;7.812;2022-09-24T17:16:11;2.23;;;1.77;;
9958;SDS011;5019;48.012;7.812;2022-09-24T17:18:37;2.00;;;1.67;;
9958;SDS011;5019;48.012;7.812;2022-09-24T17:21:04;7.10;;;3.90;;
9958;SDS011;5019;48.012;7.812;2022-09-24T17:23:31;5.83;;;2.53;;
9958;SDS011;5019;48.012;7.812;2022-09-24T17:26:03;3.37;;;2.30;;